createdAt,value
2017-09-11T00:02:01.203Z,2.50
2017-09-11T00:04:27.411Z,2.60
2017-09-11T00:06:53.582Z,3.40
2017-09-11T00:09:19.780Z,4.10
2017-09-11T00:11:46.713Z,2.87
2017-09-11T00:14:12.939Z,4.77
2017-09-11T00:16:39.907Z,2.83
2017-09-11T00:19:06.830Z,1.83
2017-09-11T00:21:33.787Z,2.80
2017-09-11T00:24:00.727Z,2.37
2017-09-11T00:26:27.638Z,3.93
2017-09-11T00:28:53.853Z,4.43
2017-09-11T00:31:20.039Z,3.87
2017-09-11T00:33:46.968Z,3.80
2017-09-11T00:36:13.916Z,2.97
2017-09-11T00:38:40.832Z,2.43
2017-09-11T00:41:07.001Z,2.60
2017-09-11T00:43:33.923Z,4.20
2017-09-11T00:46:00.140Z,5.13
2017-09-11T00:48:26.345Z,1.83
2017-09-11T00:50:52.534Z,4.50
2017-09-11T00:53:19.473Z,2.40
2017-09-11T00:55:46.361Z,4.87
2017-09-11T00:58:12.552Z,3.73
2017-09-11T01:00:39.506Z,3.57
2017-09-11T01:03:06.504Z,5.20
2017-09-11T01:05:32.703Z,2.63
2017-09-11T01:07:58.886Z,4.57
2017-09-11T01:10:25.809Z,3.03
2017-09-11T01:12:52.733Z,4.43
2017-09-11T01:15:18.933Z,8.73
2017-09-11T01:17:45.110Z,7.93
2017-09-11T01:20:11.294Z,7.03
2017-09-11T01:22:37.502Z,5.50
2017-09-11T01:25:03.711Z,4.20
2017-09-11T01:27:30.766Z,4.27
2017-09-11T01:29:57.686Z,7.43
2017-09-11T01:32:24.426Z,3.80
2017-09-11T01:34:50.630Z,9.57
2017-09-11T01:37:16.863Z,2.80
2017-09-11T01:39:43.030Z,4.63
2017-09-11T01:42:09.231Z,4.00
2017-09-11T01:44:35.431Z,4.37
2017-09-11T01:47:01.595Z,6.50
2017-09-11T01:49:27.867Z,4.60
2017-09-11T01:51:54.047Z,5.23
2017-09-11T01:54:20.239Z,7.40
2017-09-11T01:56:46.416Z,4.90
2017-09-11T01:59:12.760Z,5.87
2017-09-11T02:01:39.659Z,9.07
2017-09-11T02:04:05.842Z,7.60
2017-09-11T02:06:32.014Z,5.43
2017-09-11T02:08:58.176Z,3.67
2017-09-11T02:11:24.355Z,4.60
2017-09-11T02:13:50.568Z,11.20
2017-09-11T02:16:16.836Z,12.47
2017-09-11T02:18:43.026Z,6.60
2017-09-11T02:21:09.252Z,3.50
2017-09-11T02:23:35.436Z,9.00
2017-09-11T02:26:01.615Z,4.00
2017-09-11T02:28:27.824Z,9.00
2017-09-11T02:30:54.764Z,5.63
2017-09-11T02:33:21.686Z,6.37
2017-09-11T02:35:47.878Z,4.87
2017-09-11T02:38:14.074Z,8.33
2017-09-11T02:40:41.021Z,8.30
2017-09-11T02:43:07.977Z,8.20
2017-09-11T02:45:34.192Z,7.83
2017-09-11T02:48:00.387Z,7.40
2017-09-11T02:50:26.579Z,8.63
2017-09-11T02:52:52.801Z,6.70
2017-09-11T02:55:18.992Z,7.70
2017-09-11T02:57:45.927Z,8.63
2017-09-11T03:00:12.149Z,7.70
2017-09-11T03:02:38.321Z,8.30
2017-09-11T03:05:04.500Z,8.23
2017-09-11T03:07:30.697Z,7.10
2017-09-11T03:09:57.059Z,9.33
2017-09-11T03:12:23.285Z,7.80
2017-09-11T03:14:49.479Z,8.53
2017-09-11T03:17:15.689Z,7.50
2017-09-11T03:19:41.912Z,8.67
2017-09-11T03:22:08.844Z,13.47
2017-09-11T03:24:35.779Z,5.80
2017-09-11T03:27:02.752Z,6.90
2017-09-11T03:29:28.960Z,11.87
2017-09-11T03:31:55.898Z,8.27
2017-09-11T03:34:22.818Z,8.90
2017-09-11T03:36:48.978Z,10.57
2017-09-11T03:39:15.917Z,8.20
2017-09-11T03:41:42.859Z,8.73
2017-09-11T03:44:09.046Z,9.60
2017-09-11T03:46:36.304Z,8.60
2017-09-11T03:49:02.503Z,6.50
2017-09-11T03:51:28.718Z,12.27
2017-09-11T03:53:55.633Z,7.60
2017-09-11T03:56:21.833Z,7.83
2017-09-11T03:58:48.011Z,8.07
2017-09-11T04:01:14.916Z,7.30
2017-09-11T04:03:41.106Z,7.07
2017-09-11T04:06:07.304Z,14.70
2017-09-11T04:08:33.477Z,8.03
2017-09-11T04:11:00.509Z,10.00
2017-09-11T04:13:26.720Z,9.57
2017-09-11T04:15:53.692Z,6.97
2017-09-11T04:18:19.891Z,9.10
2017-09-11T04:20:46.811Z,13.00
2017-09-11T04:23:12.977Z,10.17
2017-09-11T04:25:39.926Z,11.40
2017-09-11T04:28:06.095Z,7.93
2017-09-11T04:30:32.288Z,11.60
2017-09-11T04:32:58.472Z,7.50
2017-09-11T04:35:24.648Z,9.10
2017-09-11T04:37:50.848Z,7.93
2017-09-11T04:40:17.056Z,7.67
2017-09-11T04:42:43.222Z,6.60
2017-09-11T04:45:09.388Z,7.07
2017-09-11T04:47:35.573Z,10.53
2017-09-11T04:50:01.788Z,11.77
2017-09-11T04:52:28.752Z,6.93
2017-09-11T04:54:54.960Z,9.87
2017-09-11T04:57:21.564Z,12.03
2017-09-11T04:59:47.761Z,8.77
2017-09-11T05:02:13.966Z,12.50
2017-09-11T05:04:40.180Z,15.60
2017-09-11T05:07:07.114Z,10.30
2017-09-11T05:09:33.274Z,10.93
2017-09-11T05:11:59.475Z,10.20
2017-09-11T05:14:25.623Z,9.20
2017-09-11T05:16:51.880Z,10.77
2017-09-11T05:19:18.068Z,8.33
2017-09-11T05:21:44.250Z,13.53
2017-09-11T05:24:10.445Z,8.90
2017-09-11T05:26:36.651Z,8.83
2017-09-11T05:29:03.793Z,8.40
2017-09-11T05:31:29.981Z,10.17
2017-09-11T05:33:56.175Z,12.40
2017-09-11T05:36:22.339Z,8.77
2017-09-11T05:38:48.517Z,8.40
2017-09-11T05:41:14.757Z,11.53
2017-09-11T05:43:40.941Z,11.60
2017-09-11T05:46:07.079Z,11.30
2017-09-11T05:48:33.259Z,11.27
2017-09-11T05:50:59.470Z,13.43
2017-09-11T05:53:25.637Z,10.77
2017-09-11T05:55:51.810Z,9.57
2017-09-11T05:58:18.775Z,11.50
2017-09-11T06:00:44.948Z,12.10
2017-09-11T06:03:11.152Z,10.00
2017-09-11T06:05:37.388Z,11.43
2017-09-11T06:08:03.610Z,11.60
2017-09-11T06:10:29.847Z,12.47
2017-09-11T06:12:56.059Z,9.03
2017-09-11T06:15:22.211Z,12.33
2017-09-11T06:17:48.917Z,10.50
2017-09-11T06:20:15.108Z,14.33
2017-09-11T06:22:41.301Z,10.33
2017-09-11T06:25:07.503Z,12.40
2017-09-11T06:27:33.701Z,8.90
2017-09-11T06:30:00.647Z,8.53
2017-09-11T06:32:27.616Z,12.70
2017-09-11T06:34:53.781Z,9.23
2017-09-11T06:37:19.941Z,15.53
2017-09-11T06:39:46.896Z,10.30
2017-09-11T06:42:13.826Z,9.10
2017-09-11T06:44:40.008Z,11.70
2017-09-11T06:47:06.245Z,10.80
2017-09-11T06:49:32.460Z,10.77
2017-09-11T06:51:58.648Z,9.00
2017-09-11T06:54:25.611Z,12.80
2017-09-11T06:56:51.844Z,10.00
2017-09-11T06:59:18.041Z,9.30
2017-09-11T07:01:44.271Z,12.93
2017-09-11T07:04:11.155Z,9.67
2017-09-11T07:06:37.349Z,14.43
2017-09-11T07:09:04.291Z,11.03
2017-09-11T07:11:30.460Z,7.47
2017-09-11T07:13:56.631Z,7.73
2017-09-11T07:16:22.813Z,6.17
2017-09-11T07:18:49.005Z,5.57
2017-09-11T07:21:15.179Z,8.10
2017-09-11T07:23:41.418Z,5.93
2017-09-11T07:26:07.619Z,5.00
2017-09-11T07:28:33.912Z,5.10
2017-09-11T07:31:00.349Z,4.70
2017-09-11T07:33:26.537Z,5.20
2017-09-11T07:35:53.318Z,4.77
2017-09-11T07:38:19.665Z,5.13
2017-09-11T07:40:46.624Z,4.67
2017-09-11T07:43:12.798Z,7.10
2017-09-11T07:45:39.011Z,7.87
2017-09-11T07:48:05.196Z,6.23
2017-09-11T07:50:32.112Z,5.50
2017-09-11T07:52:58.288Z,5.43
2017-09-11T07:55:24.481Z,5.53
2017-09-11T07:57:51.426Z,8.60
2017-09-11T08:00:17.650Z,5.07
2017-09-11T08:02:44.585Z,6.73
2017-09-11T08:05:10.764Z,6.00
2017-09-11T08:07:37.364Z,4.47
2017-09-11T08:10:03.543Z,4.67
2017-09-11T08:12:29.778Z,4.53
2017-09-11T08:14:56.063Z,5.00
2017-09-11T08:17:22.970Z,4.97
2017-09-11T08:19:49.128Z,3.10
2017-09-11T08:22:16.080Z,4.93
2017-09-11T08:24:43.039Z,6.50
2017-09-11T08:27:09.245Z,6.13
2017-09-11T08:29:35.469Z,3.70
2017-09-11T08:32:01.636Z,5.77
2017-09-11T08:34:27.864Z,3.47
2017-09-11T08:36:54.073Z,4.50
2017-09-11T08:39:21.005Z,4.63
2017-09-11T08:41:47.935Z,4.77
2017-09-11T08:44:14.145Z,4.53
2017-09-11T08:46:40.339Z,5.97
2017-09-11T08:49:06.519Z,9.27
2017-09-11T08:51:32.695Z,2.90
2017-09-11T08:53:58.886Z,6.40
2017-09-11T08:56:25.044Z,2.63
2017-09-11T08:58:51.286Z,2.40
2017-09-11T09:01:17.483Z,1.90
2017-09-11T09:03:44.450Z,3.17
2017-09-11T09:06:10.665Z,2.70
2017-09-11T09:08:37.594Z,2.57
2017-09-11T09:11:04.544Z,3.13
2017-09-11T09:13:31.518Z,2.93
2017-09-11T09:15:57.702Z,2.90
2017-09-11T09:18:23.858Z,4.63
2017-09-11T09:20:50.786Z,3.57
2017-09-11T09:23:17.700Z,3.60
2017-09-11T09:25:43.882Z,1.63
2017-09-11T09:28:10.070Z,1.03
2017-09-11T09:30:36.263Z,1.77
2017-09-11T09:33:03.286Z,3.53
2017-09-11T09:35:29.467Z,3.90
2017-09-11T09:37:55.692Z,3.70
2017-09-11T09:40:21.846Z,1.10
2017-09-11T09:42:48.775Z,1.00
2017-09-11T09:45:14.942Z,1.67
2017-09-11T09:47:41.113Z,1.67
2017-09-11T09:50:07.343Z,1.20
2017-09-11T09:52:33.517Z,1.90
2017-09-11T09:55:00.445Z,3.90
2017-09-11T09:57:28.241Z,3.27
2017-09-11T09:59:54.427Z,1.63
2017-09-11T10:02:20.599Z,1.37
2017-09-11T10:04:46.808Z,1.30
2017-09-11T10:07:13.730Z,1.90
2017-09-11T10:09:39.919Z,1.43
2017-09-11T10:12:06.128Z,1.50
2017-09-11T10:14:32.303Z,1.77
2017-09-11T10:16:58.500Z,1.53
2017-09-11T10:19:24.739Z,1.50
2017-09-11T10:21:50.919Z,1.83
2017-09-11T10:24:17.848Z,1.90
2017-09-11T10:26:44.047Z,1.70
2017-09-11T10:29:10.216Z,1.63
2017-09-11T10:31:36.499Z,1.40
2017-09-11T10:34:02.695Z,1.40
2017-09-11T10:36:28.874Z,1.40
2017-09-11T10:38:55.062Z,1.73
2017-09-11T10:41:21.264Z,2.17
2017-09-11T10:43:51.490Z,4.60
2017-09-11T10:46:18.403Z,1.77
2017-09-11T10:48:44.591Z,3.23
2017-09-11T10:51:10.785Z,3.77
2017-09-11T10:53:37.711Z,1.40
2017-09-11T10:56:03.922Z,1.63
2017-09-11T10:58:30.093Z,2.47
2017-09-11T11:00:56.339Z,1.87
2017-09-11T11:03:22.718Z,2.23
2017-09-11T11:05:48.897Z,3.90
2017-09-11T11:08:15.073Z,2.80
2017-09-11T11:10:42.087Z,1.30
2017-09-11T11:13:08.311Z,2.23
2017-09-11T11:15:34.497Z,1.57
2017-09-11T11:18:00.727Z,1.80
2017-09-11T11:20:26.989Z,2.53
2017-09-11T11:22:53.233Z,3.20
2017-09-11T11:25:19.453Z,1.93
2017-09-11T11:27:45.659Z,2.43
2017-09-11T11:30:11.868Z,1.97
2017-09-11T11:32:38.819Z,4.57
2017-09-11T11:35:05.845Z,2.47
2017-09-11T11:37:32.011Z,1.40
2017-09-11T11:39:58.969Z,3.33
2017-09-11T11:42:32.166Z,2.17
2017-09-11T11:44:58.388Z,3.10
2017-09-11T11:47:24.538Z,2.00
2017-09-11T11:49:50.741Z,1.30
2017-09-11T11:52:17.915Z,2.40
2017-09-11T11:54:44.185Z,2.00
2017-09-11T11:57:10.351Z,1.10
2017-09-11T11:59:36.581Z,1.40
2017-09-11T12:02:02.800Z,0.80
2017-09-11T12:04:29.740Z,1.67
2017-09-11T12:06:55.956Z,1.33
2017-09-11T12:09:29.915Z,1.30
2017-09-11T12:11:56.144Z,1.20
2017-09-11T12:14:22.368Z,1.97
2017-09-11T12:16:48.560Z,1.10
2017-09-11T12:19:14.778Z,1.00
2017-09-11T12:21:41.725Z,3.60
2017-09-11T12:24:08.654Z,1.57
2017-09-11T12:26:34.855Z,1.00
2017-09-11T12:29:01.055Z,1.30
2017-09-11T12:31:27.252Z,2.30
2017-09-11T12:33:54.238Z,1.83
2017-09-11T12:36:20.424Z,1.33
2017-09-11T12:38:46.604Z,1.57
2017-09-11T12:41:12.799Z,2.60
2017-09-11T12:43:39.757Z,1.20
2017-09-11T12:46:05.911Z,1.40
2017-09-11T12:48:32.134Z,2.50
2017-09-11T12:50:58.333Z,0.90
2017-09-11T12:53:24.517Z,1.93
2017-09-11T12:55:50.720Z,1.17
2017-09-11T12:58:16.917Z,1.20
2017-09-11T13:00:43.145Z,2.33
2017-09-11T13:03:10.102Z,3.90
2017-09-11T13:05:36.335Z,3.03
2017-09-11T13:08:02.587Z,0.97
2017-09-11T13:10:28.798Z,2.33
2017-09-11T13:12:55.013Z,1.50
2017-09-11T13:15:21.180Z,3.60
2017-09-11T13:17:47.403Z,3.77
2017-09-11T13:20:13.587Z,1.30
2017-09-11T13:22:39.780Z,3.10
2017-09-11T13:25:05.983Z,3.33
2017-09-11T13:27:32.184Z,2.43
2017-09-11T13:29:58.387Z,4.23
2017-09-11T13:32:25.335Z,5.67
2017-09-11T13:34:52.282Z,1.20
2017-09-11T13:37:19.209Z,1.80
2017-09-11T13:39:45.456Z,3.23
2017-09-11T13:42:12.392Z,2.20
2017-09-11T13:44:39.304Z,1.23
2017-09-11T13:47:05.546Z,2.73
2017-09-11T13:49:31.734Z,0.90
2017-09-11T13:52:02.879Z,1.73
2017-09-11T13:54:29.119Z,2.90
2017-09-11T13:56:55.305Z,3.03
2017-09-11T13:59:22.258Z,1.03
2017-09-11T14:01:49.219Z,2.50
2017-09-11T14:04:15.409Z,2.30
2017-09-11T14:06:42.396Z,3.43
2017-09-11T14:09:08.612Z,3.10
2017-09-11T14:11:34.770Z,2.00
2017-09-11T14:14:00.971Z,2.00
2017-09-11T14:16:27.169Z,1.47
2017-09-11T14:18:53.398Z,1.83
2017-09-11T14:21:19.571Z,4.43
2017-09-11T14:23:45.933Z,2.10
2017-09-11T14:26:12.116Z,2.50
2017-09-11T14:28:38.288Z,1.77
2017-09-11T14:31:04.482Z,1.17
2017-09-11T14:33:30.717Z,2.57
2017-09-11T14:35:56.893Z,4.47
2017-09-11T14:38:23.088Z,4.73
2017-09-11T14:40:49.305Z,3.53
2017-09-11T14:43:15.508Z,3.20
2017-09-11T14:45:41.712Z,1.33
2017-09-11T14:48:07.895Z,7.33
2017-09-11T14:50:34.112Z,3.83
2017-09-11T14:53:00.327Z,3.03
2017-09-11T14:55:26.512Z,3.83
2017-09-11T14:57:52.689Z,1.20
2017-09-11T15:00:18.894Z,1.87
2017-09-11T15:02:45.809Z,2.83
2017-09-11T15:05:11.991Z,3.00
2017-09-11T15:07:38.214Z,1.90
2017-09-11T15:10:04.401Z,3.00
2017-09-11T15:12:30.579Z,2.17
2017-09-11T15:14:56.763Z,2.73
2017-09-11T15:17:23.683Z,1.20
2017-09-11T15:19:49.867Z,3.97
2017-09-11T15:22:16.197Z,1.63
2017-09-11T15:24:42.379Z,1.83
2017-09-11T15:27:08.541Z,1.23
2017-09-11T15:29:35.472Z,1.40
2017-09-11T15:32:02.404Z,2.73
2017-09-11T15:34:28.576Z,5.13
2017-09-11T15:36:54.779Z,4.87
2017-09-11T15:39:21.681Z,1.50
2017-09-11T15:41:47.854Z,3.40
2017-09-11T15:44:14.784Z,2.20
2017-09-11T15:46:41.706Z,2.43
2017-09-11T15:49:07.988Z,3.83
2017-09-11T15:51:34.166Z,2.13
2017-09-11T15:54:00.333Z,2.33
2017-09-11T15:56:26.592Z,1.73
2017-09-11T15:58:52.800Z,2.30
2017-09-11T16:01:19.710Z,6.80
2017-09-11T16:03:45.896Z,1.70
2017-09-11T16:06:12.104Z,1.90
2017-09-11T16:08:38.282Z,2.10
2017-09-11T16:11:04.495Z,2.90
2017-09-11T16:13:30.674Z,3.43
2017-09-11T16:15:56.867Z,1.67
2017-09-11T16:18:23.080Z,7.27
2017-09-11T16:20:49.314Z,3.40
2017-09-11T16:23:15.507Z,2.40
2017-09-11T16:25:41.733Z,4.37
2017-09-11T16:28:07.947Z,1.70
2017-09-11T16:30:34.867Z,4.93
2017-09-11T16:33:01.061Z,1.33
2017-09-11T16:35:27.284Z,2.53
2017-09-11T16:37:53.448Z,1.30
2017-09-11T16:40:19.603Z,1.43
2017-09-11T16:42:46.551Z,2.50
2017-09-11T16:45:45.207Z,2.40
2017-09-11T16:48:11.407Z,1.30
2017-09-11T16:50:37.572Z,1.20
2017-09-11T16:53:03.796Z,1.77
2017-09-11T16:55:30.014Z,2.30
2017-09-11T16:57:56.233Z,0.73
2017-09-11T17:00:22.444Z,2.10
2017-09-11T17:02:48.627Z,6.10
2017-09-11T17:05:15.536Z,0.90
2017-09-11T17:07:41.739Z,0.80
2017-09-11T17:10:07.961Z,1.33
2017-09-11T17:12:34.156Z,1.63
2017-09-11T17:15:01.075Z,0.93
2017-09-11T17:17:27.277Z,1.90
2017-09-11T17:19:53.501Z,5.33
2017-09-11T17:22:19.681Z,4.47
2017-09-11T17:24:46.761Z,1.67
2017-09-11T17:27:12.985Z,5.60
2017-09-11T17:29:39.161Z,1.13
2017-09-11T17:32:05.331Z,2.00
2017-09-11T17:34:32.413Z,5.00
2017-09-11T17:36:58.658Z,1.13
2017-09-11T17:39:25.934Z,3.73
2017-09-11T17:41:53.378Z,1.20
2017-09-11T17:44:19.628Z,1.37
2017-09-11T17:46:46.579Z,3.00
2017-09-11T17:49:14.042Z,7.03
2017-09-11T17:51:40.960Z,2.00
2017-09-11T17:54:07.177Z,2.93
2017-09-11T17:56:33.384Z,1.73
2017-09-11T17:58:59.554Z,2.50
2017-09-11T18:01:26.772Z,3.10
2017-09-11T18:03:59.962Z,2.10
2017-09-11T18:06:26.196Z,1.27
2017-09-11T18:08:52.480Z,5.20
2017-09-11T18:11:18.680Z,2.40
2017-09-11T18:13:44.965Z,2.23
2017-09-11T18:16:11.144Z,2.90
2017-09-11T18:18:38.152Z,2.07
2017-09-11T18:21:04.361Z,1.83
2017-09-11T18:23:30.531Z,1.27
2017-09-11T18:25:56.742Z,1.83
2017-09-11T18:28:22.923Z,2.60
2017-09-11T18:30:51.030Z,1.27
2017-09-11T18:33:17.248Z,1.30
2017-09-11T18:35:43.448Z,2.00
2017-09-11T18:38:10.400Z,0.90
2017-09-11T18:40:37.362Z,1.10
2017-09-11T18:43:03.561Z,1.80
2017-09-11T18:45:30.672Z,1.97
2017-09-11T18:47:56.896Z,0.80
2017-09-11T18:50:23.112Z,5.70
2017-09-11T18:52:49.493Z,1.30
2017-09-11T18:55:17.429Z,1.90
2017-09-11T18:57:43.620Z,2.50
2017-09-11T19:00:09.844Z,0.90
2017-09-11T19:02:36.765Z,1.53
2017-09-11T19:05:03.719Z,2.03
2017-09-11T19:07:29.967Z,3.77
2017-09-11T19:09:56.299Z,1.03
2017-09-11T19:12:23.486Z,0.90
2017-09-11T19:14:49.651Z,1.90
2017-09-11T19:17:16.597Z,1.10
2017-09-11T19:19:43.553Z,2.77
2017-09-11T19:22:10.512Z,1.63
2017-09-11T19:24:37.412Z,2.83
2017-09-11T19:27:03.628Z,1.40
2017-09-11T19:29:29.828Z,2.20
2017-09-11T19:31:55.991Z,2.53
2017-09-11T19:34:22.270Z,2.43
2017-09-11T19:36:48.463Z,1.10
2017-09-11T19:39:14.666Z,2.13
2017-09-11T19:41:40.882Z,1.10
2017-09-11T19:44:07.076Z,2.90
2017-09-11T19:46:33.976Z,0.80
2017-09-11T19:49:00.180Z,2.60
2017-09-11T19:51:26.368Z,1.30
2017-09-11T19:53:53.270Z,4.60
2017-09-11T19:56:19.478Z,2.57
2017-09-11T19:58:45.652Z,3.90
2017-09-11T20:01:11.852Z,1.60
2017-09-11T20:03:38.046Z,1.27
2017-09-11T20:06:04.226Z,4.10
2017-09-11T20:08:30.415Z,3.40
2017-09-11T20:10:56.644Z,3.63
2017-09-11T20:13:22.827Z,6.00
2017-09-11T20:15:49.777Z,3.77
2017-09-11T20:18:16.178Z,3.80
2017-09-11T20:20:42.351Z,4.00
2017-09-11T20:23:09.307Z,5.53
2017-09-11T20:25:35.519Z,3.33
2017-09-11T20:28:02.483Z,3.27
2017-09-11T20:30:28.709Z,8.20
2017-09-11T20:32:54.896Z,6.40
2017-09-11T20:35:21.112Z,4.43
2017-09-11T20:37:47.387Z,1.23
2017-09-11T20:40:13.700Z,5.33
2017-09-11T20:42:39.928Z,1.37
2017-09-11T20:45:06.223Z,0.80
2017-09-11T20:47:32.444Z,1.37
2017-09-11T20:49:58.692Z,2.20
2017-09-11T20:52:24.922Z,3.33
2017-09-11T20:54:51.190Z,2.40
2017-09-11T20:57:17.465Z,2.40
2017-09-11T20:59:43.768Z,2.10
2017-09-11T21:02:09.960Z,1.90
2017-09-11T21:04:36.172Z,2.07
2017-09-11T21:07:02.476Z,3.47
2017-09-11T21:09:28.654Z,1.37
2017-09-11T21:11:55.602Z,2.93
2017-09-11T21:14:22.226Z,4.83
2017-09-11T21:16:49.982Z,1.47
2017-09-11T21:19:16.177Z,3.07
2017-09-11T21:21:42.416Z,4.80
2017-09-11T21:24:08.599Z,2.93
2017-09-11T21:26:34.821Z,2.33
2017-09-11T21:29:01.807Z,3.47
2017-09-11T21:31:28.040Z,1.57
2017-09-11T21:33:54.244Z,3.10
2017-09-11T21:36:20.463Z,0.70
2017-09-11T21:38:47.405Z,7.10
2017-09-11T21:41:14.347Z,1.47
2017-09-11T21:43:41.315Z,2.60
2017-09-11T21:46:07.528Z,3.03
2017-09-11T21:48:34.456Z,2.20
2017-09-11T21:51:01.392Z,1.70
2017-09-11T21:53:27.595Z,4.33
2017-09-11T21:55:53.780Z,3.90
2017-09-11T21:58:20.615Z,2.07
2017-09-11T22:00:47.575Z,2.50
2017-09-11T22:03:13.760Z,5.83
2017-09-11T22:05:39.976Z,5.27
2017-09-11T22:08:06.163Z,2.67
2017-09-11T22:10:32.361Z,9.70
2017-09-11T22:12:58.552Z,2.07
2017-09-11T22:15:24.772Z,3.90
2017-09-11T22:17:50.992Z,2.10
2017-09-11T22:20:17.223Z,2.20
2017-09-11T22:22:43.397Z,2.23
2017-09-11T22:25:09.584Z,1.97
2017-09-11T22:27:35.758Z,2.93
2017-09-11T22:30:01.948Z,2.17
2017-09-11T22:32:28.168Z,5.30
2017-09-11T22:34:54.413Z,1.80
2017-09-11T22:37:20.634Z,2.73
2017-09-11T22:39:53.830Z,4.93
2017-09-11T22:42:26.933Z,7.70
2017-09-11T22:44:53.189Z,2.40
2017-09-11T22:47:20.129Z,1.60
2017-09-11T22:49:46.308Z,2.50
2017-09-11T22:52:12.494Z,3.80
2017-09-11T22:54:38.702Z,2.47
2017-09-11T22:57:04.927Z,4.80
2017-09-11T22:59:31.848Z,1.70
2017-09-11T23:01:58.071Z,7.73
2017-09-11T23:04:24.267Z,1.40
2017-09-11T23:06:50.465Z,1.80
2017-09-11T23:09:17.415Z,7.17
2017-09-11T23:11:44.343Z,2.07
2017-09-11T23:14:10.561Z,2.73
2017-09-11T23:16:36.782Z,3.90
2017-09-11T23:19:02.960Z,2.60
2017-09-11T23:21:29.895Z,1.20
2017-09-11T23:23:56.832Z,4.63
2017-09-11T23:26:23.015Z,3.10
2017-09-11T23:28:49.247Z,1.77
2017-09-11T23:31:15.470Z,3.33
2017-09-11T23:33:41.631Z,3.13
2017-09-11T23:36:14.891Z,2.70
2017-09-11T23:38:41.149Z,3.23
2017-09-11T23:41:07.319Z,1.73
2017-09-11T23:43:34.265Z,2.50
2017-09-11T23:46:01.201Z,2.63
2017-09-11T23:48:28.154Z,8.33
2017-09-11T23:50:54.365Z,8.33
2017-09-11T23:53:21.300Z,6.93
2017-09-11T23:55:47.489Z,5.77
2017-09-11T23:58:13.675Z,4.80
